Hardyville, Virginia
Current Conditions -  °F | °C
As of 3:15 AM on Tuesday 27 Jan 2015 (Local Time) from KW75 Reporting Station
Overcast Overcast  
Wind Chill: 19°   Ceiling: 1200
Heat Index: 29°   Visibility: 10mi
Dew Point: 25°   Wind: 13mph
Humidity: 85%   Direction: 340°NNW
Pressure: 29.69"   Gusts: 21mph
Location:  37.56°N, 76.37°W
Report Text: KW75 270815Z AUTO 34011G18KT 10SM OVC012 M02/M04 A2969 RMK AO1 T10161038
Loading
Personal Weather Stations






























Interactive Weather Map New forecast layout! Learn more

10-Day Weather Forecast

Advertisements
Track Severe Weather on mobile